Time;durP1;ratioP1;P1;durP2;ratioP2;P2;SDS_P1;SDS_P2;PMS_P1;PMS_P2;Temp;Humidity;BMP_temperature;BMP_pressure;BME280_temperature;BME280_humidity;BME280_pressure;Samples;Min_cycle;Max_cycle;Signal;HPM_P1;HPM_P2
2023/10/28 00:01:42;;;;;;;13.15;10.73;;;;;;;8.55;100.00;99295.34;5006147;28;20013;-66
2023/10/28 00:04:08;;;;;;;18.75;11.32;;;;;;;8.56;100.00;99301.41;5008834;28;20018;-65
2023/10/28 00:06:34;;;;;;;14.52;10.68;;;;;;;8.53;100.00;99295.31;5009015;28;20064;-66
2023/10/28 00:09:00;;;;;;;16.33;10.75;;;;;;;8.57;100.00;99297.97;4993194;28;20050;-67
2023/10/28 00:11:26;;;;;;;18.23;10.50;;;;;;;8.54;100.00;99298.78;5005024;28;20057;-65
2023/10/28 00:13:52;;;;;;;20.58;9.43;;;;;;;8.55;100.00;99305.66;4991779;28;20108;-67
2023/10/28 00:16:17;;;;;;;19.27;9.20;;;;;;;8.56;100.00;99302.28;5014970;28;20033;-67
2023/10/28 00:18:43;;;;;;;12.60;8.23;;;;;;;8.57;100.00;99303.13;4993189;28;20025;-67
2023/10/28 00:21:09;;;;;;;16.75;7.82;;;;;;;8.56;100.00;99299.69;4996554;28;20417;-65
2023/10/28 00:23:35;;;;;;;14.27;8.25;;;;;;;8.58;100.00;99305.72;4991069;28;20028;-66
2023/10/28 00:26:04;;;;;;;18.00;8.18;;;;;;;8.57;100.00;99298.84;5010537;28;20026;-66
2023/10/28 00:28:35;;;;;;;15.73;8.50;;;;;;;8.59;100.00;99298.88;5007049;28;20026;-66
2023/10/28 00:31:03;;;;;;;15.73;9.90;;;;;;;8.58;100.00;99300.56;5010943;28;20021;-66
2023/10/28 00:33:28;;;;;;;15.45;9.63;;;;;;;8.60;100.00;99292.88;5013245;28;20025;-66
2023/10/28 00:35:54;;;;;;;14.65;8.07;;;;;;;8.61;100.00;99292.91;5011652;28;20051;-66
2023/10/28 00:38:20;;;;;;;16.38;9.30;;;;;;;8.63;100.00;99298.06;5007309;28;20373;-66
2023/10/28 00:40:45;;;;;;;12.73;8.82;;;;;;;8.65;100.00;99296.38;5006266;28;20033;-66
2023/10/28 00:43:11;;;;;;;16.80;8.88;;;;;;;8.66;100.00;99298.13;5009385;28;20046;-66
2023/10/28 00:45:37;;;;;;;15.27;9.32;;;;;;;8.66;100.00;99292.94;5021298;28;20030;-66
2023/10/28 00:48:02;;;;;;;18.58;8.82;;;;;;;8.68;100.00;99298.13;5000138;28;20038;-66
2023/10/28 00:50:29;;;;;;;15.23;8.02;;;;;;;8.69;100.00;99302.47;5000458;28;20031;-65
2023/10/28 00:52:56;;;;;;;14.57;7.80;;;;;;;8.70;100.00;99312.81;5006943;28;20088;-66
2023/10/28 00:55:23;;;;;;;16.95;6.70;;;;;;;8.71;100.00;99306.78;5008998;28;20084;-65
2023/10/28 00:57:49;;;;;;;12.60;6.75;;;;;;;8.73;100.00;99301.66;5012347;28;20028;-66
2023/10/28 01:00:15;;;;;;;15.80;6.43;;;;;;;8.75;100.00;99297.38;5002335;28;20399;-66
2023/10/28 01:02:42;;;;;;;15.38;6.90;;;;;;;8.77;100.00;99300.88;5003335;28;20019;-66
2023/10/28 01:05:11;;;;;;;10.15;5.80;;;;;;;8.78;100.00;99297.41;5013819;28;20533;-65
2023/10/28 01:07:38;;;;;;;11.15;4.50;;;;;;;8.79;100.00;99294.00;5018006;28;20017;-64
2023/10/28 01:10:04;;;;;;;11.32;5.25;;;;;;;8.80;100.00;99298.31;5001029;28;20097;-66
2023/10/28 01:12:29;;;;;;;6.32;3.67;;;;;;;8.83;100.00;99300.09;4989058;28;20493;-66
2023/10/28 01:14:55;;;;;;;11.10;4.88;;;;;;;8.83;100.00;99306.09;5011559;28;20026;-65
2023/10/28 01:17:25;;;;;;;10.55;4.07;;;;;;;8.85;100.00;99304.41;5004926;28;20025;-66
2023/10/28 01:19:51;;;;;;;6.22;3.22;;;;;;;8.85;100.00;99299.25;5005924;28;20030;-66
2023/10/28 01:22:16;;;;;;;10.43;3.35;;;;;;;8.87;100.00;99297.56;4997971;28;20049;-66
2023/10/28 01:24:42;;;;;;;9.13;3.38;;;;;;;8.88;100.00;99299.31;5015916;28;20580;-67
2023/10/28 01:27:09;;;;;;;6.38;2.97;;;;;;;8.90;100.00;99291.59;4997640;28;20071;-66
2023/10/28 01:29:35;;;;;;;8.00;3.33;;;;;;;8.92;100.00;99294.19;4997314;28;20113;-66
2023/10/28 01:32:03;;;;;;;7.55;3.90;;;;;;;8.93;100.00;99293.31;4995045;28;20064;-67
2023/10/28 01:34:29;;;;;;;9.98;4.40;;;;;;;8.92;100.00;99295.06;4990057;28;21263;-66
2023/10/28 01:36:59;;;;;;;7.60;3.65;;;;;;;8.93;100.00;99301.94;5007475;28;20034;-65
2023/10/28 01:39:25;;;;;;;6.13;3.50;;;;;;;8.95;100.00;99301.97;5007887;28;20025;-66
2023/10/28 01:41:51;;;;;;;9.55;4.40;;;;;;;8.94;100.00;99303.69;5006304;28;20136;-66
2023/10/28 01:44:16;;;;;;;8.30;3.88;;;;;;;8.96;100.00;99301.13;5009750;28;20100;-66
2023/10/28 01:46:42;;;;;;;7.95;3.63;;;;;;;8.95;100.00;99304.56;5016009;28;20033;-66
2023/10/28 01:49:08;;;;;;;13.02;3.58;;;;;;;8.95;100.00;99300.25;5003800;28;20433;-66
2023/10/28 01:51:33;;;;;;;8.98;3.03;;;;;;;8.96;100.00;99303.72;4997968;28;20036;-66
2023/10/28 01:53:59;;;;;;;5.05;4.07;;;;;;;8.95;100.00;99304.56;5013818;28;20054;-66
2023/10/28 01:56:24;;;;;;;9.00;3.28;;;;;;;8.96;100.00;99296.81;4998508;28;20057;-66
2023/10/28 01:58:49;;;;;;;5.82;2.63;;;;;;;8.93;100.00;99301.06;4997668;28;20540;-65
2023/10/28 02:01:15;;;;;;;4.03;2.35;;;;;;;8.94;100.00;99298.50;5015933;28;20030;-66
2023/10/28 02:03:40;;;;;;;6.15;2.50;;;;;;;8.93;100.00;99293.31;5018054;28;20017;-66
2023/10/28 02:06:07;;;;;;;5.63;2.17;;;;;;;8.92;100.00;99300.22;5007231;28;20100;-66
2023/10/28 02:08:33;;;;;;;4.38;2.47;;;;;;;8.91;100.00;99289.84;5003816;28;20026;-66
2023/10/28 02:10:58;;;;;;;5.78;1.88;;;;;;;8.90;100.00;99286.41;4997895;28;20418;-67
2023/10/28 02:13:23;;;;;;;3.92;1.83;;;;;;;8.91;100.00;99292.44;5000640;28;20363;-66
2023/10/28 02:15:49;;;;;;;5.82;1.70;;;;;;;8.90;100.00;99286.41;4991688;28;20026;-65
2023/10/28 02:18:18;;;;;;;3.75;1.88;;;;;;;8.89;100.00;99295.00;4995971;28;20255;-66
2023/10/28 02:20:44;;;;;;;5.30;1.77;;;;;;;8.88;100.00;99288.97;5011143;28;20088;-66
2023/10/28 02:23:10;;;;;;;6.32;1.90;;;;;;;8.87;100.00;99291.50;5009010;28;20025;-66
2023/10/28 02:25:36;;;;;;;4.47;1.60;;;;;;;8.85;100.00;99288.91;5014906;28;20041;-65
2023/10/28 02:28:01;;;;;;;2.95;1.27;;;;;;;8.84;100.00;99291.47;5011842;28;20027;-67
2023/10/28 02:30:26;;;;;;;3.47;1.27;;;;;;;8.85;100.00;99294.09;5016707;28;20109;-66
2023/10/28 02:32:54;;;;;;;5.60;1.90;;;;;;;8.84;100.00;99294.94;5000364;28;20120;-67
2023/10/28 02:35:19;;;;;;;4.65;1.55;;;;;;;8.83;100.00;99290.59;5009157;28;20014;-66
2023/10/28 02:37:44;;;;;;;4.05;1.73;;;;;;;8.83;100.00;99289.75;5014377;28;20029;-66
2023/10/28 02:40:10;;;;;;;4.68;1.30;;;;;;;8.82;100.00;99288.88;5004416;28;20557;-66
2023/10/28 02:42:35;;;;;;;3.80;1.02;;;;;;;8.80;100.00;99293.16;5011729;28;20062;-65
2023/10/28 02:45:01;;;;;;;7.00;1.27;;;;;;;8.79;100.00;99285.38;5005387;28;20022;-66
2023/10/28 02:47:29;;;;;;;4.78;1.45;;;;;;;8.77;100.00;99293.13;5005212;28;20109;-66
2023/10/28 02:49:55;;;;;;;4.03;1.80;;;;;;;8.77;100.00;99290.53;5003766;28;20033;-67
2023/10/28 02:52:20;;;;;;;7.63;1.55;;;;;;;8.76;100.00;99293.97;5012290;28;20013;-66
2023/10/28 02:54:45;;;;;;;3.35;0.93;;;;;;;8.76;100.00;99294.81;5003475;28;20557;-66
2023/10/28 02:57:10;;;;;;;1.73;1.00;;;;;;;8.75;100.00;99297.38;5011797;28;20022;-66
2023/10/28 02:59:36;;;;;;;2.75;0.95;;;;;;;8.75;100.00;99297.38;5002682;28;20176;-66
2023/10/28 03:02:01;;;;;;;3.45;1.35;;;;;;;8.74;100.00;99301.66;5002798;28;20072;-65
2023/10/28 03:04:26;;;;;;;3.35;1.02;;;;;;;8.74;100.00;99295.66;5009427;28;20032;-66
2023/10/28 03:06:52;;;;;;;1.55;1.15;;;;;;;8.72;100.00;99305.97;5006369;28;20326;-66
2023/10/28 03:09:17;;;;;;;3.95;1.42;;;;;;;8.72;100.00;99308.56;5008478;28;20029;-66
2023/10/28 03:11:42;;;;;;;4.32;1.75;;;;;;;8.72;100.00;99305.09;5010222;28;20057;-66
2023/10/28 03:14:07;;;;;;;8.10;2.35;;;;;;;8.72;100.00;99305.09;5008399;28;20026;-67
2023/10/28 03:16:33;;;;;;;3.47;2.03;;;;;;;8.73;100.00;99311.97;5007837;28;20022;-66
2023/10/28 03:18:58;;;;;;;3.03;1.73;;;;;;;8.72;100.00;99295.63;5009640;28;20477;-67
2023/10/28 03:21:24;;;;;;;3.15;2.35;;;;;;;8.70;100.00;99299.03;5009161;28;20037;-66
2023/10/28 03:23:49;;;;;;;6.18;2.00;;;;;;;8.71;100.00;99300.75;5020499;28;20055;-66
2023/10/28 03:26:14;;;;;;;2.90;2.00;;;;;;;8.68;100.00;99301.59;4989771;28;20109;-66
2023/10/28 03:28:41;;;;;;;2.75;1.80;;;;;;;8.64;100.00;99300.69;4993374;28;20436;-66
2023/10/28 03:31:11;;;;;;;3.13;2.58;;;;;;;8.60;100.00;99304.03;5019480;28;20398;-66
2023/10/28 03:33:37;;;;;;;5.22;1.83;;;;;;;8.60;100.00;99301.47;5009073;28;20482;-67
2023/10/28 03:36:09;;;;;;;3.40;2.00;;;;;;;8.59;100.00;99306.59;5010652;28;20109;-66
2023/10/28 03:38:34;;;;;;;3.90;1.98;;;;;;;8.56;100.00;99297.13;5003062;28;20494;-66
2023/10/28 03:41:07;;;;;;;5.53;1.98;;;;;;;8.55;100.00;99302.19;5012497;28;20026;-66
2023/10/28 03:43:32;;;;;;;4.43;2.10;;;;;;;8.52;100.00;99305.63;4999414;28;20053;-65
2023/10/28 03:45:58;;;;;;;5.22;1.73;;;;;;;8.50;100.00;99297.84;4998112;28;20466;-66
2023/10/28 03:48:23;;;;;;;6.10;2.65;;;;;;;8.51;100.00;99301.28;5000083;28;20061;-67
2023/10/28 03:51:04;;;;;;;2.75;2.10;;;;;;;8.51;100.00;99299.56;5005079;28;20157;-66
2023/10/28 03:53:29;;;;;;;5.05;1.83;;;;;;;8.51;100.00;99303.88;5002634;28;20026;-66
2023/10/28 03:55:55;;;;;;;2.88;1.60;;;;;;;8.51;100.00;99302.16;5009930;28;20041;-67
2023/10/28 03:58:20;;;;;;;4.28;1.45;;;;;;;8.51;100.00;99303.88;4998677;28;20018;-66
2023/10/28 04:00:49;;;;;;;4.53;1.85;;;;;;;8.51;100.00;99296.13;4994930;28;20121;-66
2023/10/28 04:03:14;;;;;;;3.35;1.65;;;;;;;8.51;100.00;99293.53;5008638;28;20535;-66
2023/10/28 04:05:39;;;;;;;7.00;1.70;;;;;;;8.50;100.00;99296.97;4999146;28;20061;-66
2023/10/28 04:08:05;;;;;;;3.22;1.45;;;;;;;8.50;100.00;99296.97;5019579;28;20398;-66
2023/10/28 04:10:30;;;;;;;3.55;1.75;;;;;;;8.48;100.00;99286.63;5001149;28;20029;-66
2023/10/28 04:12:55;;;;;;;6.60;1.63;;;;;;;8.48;100.00;99293.50;5016287;28;20104;-66
2023/10/28 04:15:21;;;;;;;3.60;1.92;;;;;;;8.49;100.00;99287.50;4990906;28;20029;-66
2023/10/28 04:17:46;;;;;;;3.90;1.45;;;;;;;8.47;100.00;99287.47;4999765;28;20030;-66
2023/10/28 04:20:11;;;;;;;6.03;1.70;;;;;;;8.49;100.00;99285.78;5003196;28;20029;-66
2023/10/28 04:22:37;;;;;;;6.60;1.92;;;;;;;8.49;100.00;99283.19;5001987;28;20103;-65
2023/10/28 04:25:03;;;;;;;6.18;2.15;;;;;;;8.49;100.00;99284.94;5011587;28;20481;-66
2023/10/28 04:27:29;;;;;;;2.50;1.55;;;;;;;8.50;100.00;99281.47;5004524;28;20025;-66
2023/10/28 04:29:54;;;;;;;3.05;1.25;;;;;;;8.51;100.00;99283.22;5017579;28;20527;-66
2023/10/28 04:32:22;;;;;;;6.53;2.30;;;;;;;8.50;100.00;99282.38;5004061;28;20029;-65
2023/10/28 04:34:48;;;;;;;4.95;1.40;;;;;;;8.51;100.00;99272.88;4998269;28;20056;-67
2023/10/28 04:37:14;;;;;;;2.72;1.75;;;;;;;8.53;100.00;99276.38;5007205;28;20044;-67
2023/10/28 04:39:40;;;;;;;3.40;1.60;;;;;;;8.52;100.00;99277.22;4988538;28;20475;-66
2023/10/28 04:42:07;;;;;;;6.60;1.75;;;;;;;8.52;100.00;99272.94;5001418;28;20061;-66
2023/10/28 04:44:33;;;;;;;6.20;2.20;;;;;;;8.53;100.00;99278.94;5007517;28;20032;-66
2023/10/28 04:46:58;;;;;;;5.88;2.20;;;;;;;8.55;100.00;99273.78;5007101;28;20034;-67
2023/10/28 04:49:23;;;;;;;4.10;1.65;;;;;;;8.55;100.00;99274.69;5007852;28;20075;-66
2023/10/28 04:51:49;;;;;;;2.65;1.52;;;;;;;8.55;100.00;99273.78;5008943;28;20026;-66
2023/10/28 04:54:14;;;;;;;5.25;1.80;;;;;;;8.56;100.00;99281.63;4994118;28;20446;-66
2023/10/28 04:56:39;;;;;;;3.70;1.58;;;;;;;8.54;100.00;99270.38;5007862;28;20038;-65
2023/10/28 04:59:04;;;;;;;3.38;2.13;;;;;;;8.54;100.00;99275.53;5009192;28;20026;-66
2023/10/28 05:01:30;;;;;;;4.55;1.80;;;;;;;8.54;100.00;99265.22;5005828;28;20034;-66
2023/10/28 05:03:55;;;;;;;3.13;1.63;;;;;;;8.55;100.00;99272.09;5006214;28;20511;-66
2023/10/28 05:06:20;;;;;;;5.25;1.50;;;;;;;8.56;100.00;99260.09;5007035;28;20026;-66
2023/10/28 05:08:47;;;;;;;6.32;1.75;;;;;;;8.56;100.00;99255.81;5004706;28;20310;-66
2023/10/28 05:11:16;;;;;;;6.45;2.08;;;;;;;8.56;100.00;99260.97;5006637;28;20029;-66
2023/10/28 05:13:42;;;;;;;4.38;1.77;;;;;;;8.57;100.00;99252.38;4996250;28;20026;-66
2023/10/28 05:16:09;;;;;;;3.78;1.70;;;;;;;8.58;100.00;99264.41;5006522;28;20115;-66
2023/10/28 05:18:35;;;;;;;3.42;1.83;;;;;;;8.58;100.00;99264.41;5007646;28;20087;-66
2023/10/28 05:21:01;;;;;;;1.92;1.50;;;;;;;8.59;100.00;99261.00;5000639;28;20034;-66
2023/10/28 05:23:27;;;;;;;5.57;2.10;;;;;;;8.58;100.00;99259.25;5005079;28;20109;-66
2023/10/28 05:25:53;;;;;;;6.32;2.30;;;;;;;8.59;100.00;99261.00;5003881;28;20512;-66
2023/10/28 05:28:19;;;;;;;6.45;1.90;;;;;;;8.60;100.00;99262.72;4990202;28;20030;-66
2023/10/28 05:30:45;;;;;;;5.65;1.60;;;;;;;8.59;100.00;99266.19;5002837;28;20036;-66
2023/10/28 05:33:11;;;;;;;6.40;2.05;;;;;;;8.57;100.00;99252.38;5005933;28;20064;-66
2023/10/28 05:35:37;;;;;;;4.18;1.83;;;;;;;8.56;100.00;99266.13;5005271;28;20533;-66
2023/10/28 05:38:02;;;;;;;3.80;1.35;;;;;;;8.58;100.00;99268.75;5005480;28;20014;-66
2023/10/28 05:40:27;;;;;;;4.13;1.90;;;;;;;8.57;100.00;99257.53;5012091;28;20421;-66
2023/10/28 05:42:54;;;;;;;5.30;2.17;;;;;;;8.57;100.00;99261.81;5007647;28;20061;-66
2023/10/28 05:45:20;;;;;;;4.85;2.05;;;;;;;8.55;100.00;99264.34;5001302;28;20033;-66
2023/10/28 05:47:46;;;;;;;4.97;1.70;;;;;;;8.56;100.00;99265.25;5001896;28;20034;-66
2023/10/28 05:50:11;;;;;;;5.05;1.80;;;;;;;8.55;100.00;99266.94;4999586;28;20076;-66
2023/10/28 05:52:38;;;;;;;3.35;1.83;;;;;;;8.56;100.00;99271.31;5005669;28;20022;-67
2023/10/28 05:55:04;;;;;;;6.72;2.08;;;;;;;8.56;100.00;99276.47;5004804;28;20026;-66
2023/10/28 05:57:29;;;;;;;10.52;2.88;;;;;;;8.56;100.00;99280.75;5011357;28;20014;-65
2023/10/28 05:59:54;;;;;;;3.55;2.00;;;;;;;8.56;100.00;99281.63;5014603;28;20067;-65
2023/10/28 06:02:20;;;;;;;7.40;2.10;;;;;;;8.56;100.00;99284.22;5005905;28;20029;-66
2023/10/28 06:04:45;;;;;;;5.07;1.77;;;;;;;8.56;100.00;99286.78;5013365;28;20036;-65
2023/10/28 06:07:10;;;;;;;9.23;2.10;;;;;;;8.56;100.00;99286.78;5009056;28;20435;-66
2023/10/28 06:09:36;;;;;;;5.82;1.85;;;;;;;8.57;100.00;99288.50;5010027;28;20017;-66
2023/10/28 06:12:01;;;;;;;4.03;1.40;;;;;;;8.57;100.00;99283.34;5009734;28;20018;-66
2023/10/28 06:14:26;;;;;;;5.93;1.85;;;;;;;8.58;100.00;99287.66;5011626;28;20079;-66
2023/10/28 06:16:52;;;;;;;7.22;1.90;;;;;;;8.60;100.00;99288.56;5009485;28;20060;-66
2023/10/28 06:19:21;;;;;;;4.38;2.10;;;;;;;8.62;100.00;99281.72;5009370;28;20026;-65
2023/10/28 06:21:47;;;;;;;4.82;1.80;;;;;;;8.64;100.00;99286.88;5005852;28;20083;-66
2023/10/28 06:24:12;;;;;;;5.28;1.52;;;;;;;8.64;100.00;99285.19;5004744;28;20030;-65
2023/10/28 06:26:38;;;;;;;5.30;2.30;;;;;;;8.66;100.00;99287.78;5000882;28;20026;-66
2023/10/28 06:29:03;;;;;;;5.28;1.98;;;;;;;8.70;100.00;99291.28;4995242;28;20019;-66
2023/10/28 06:31:28;;;;;;;5.57;1.75;;;;;;;8.71;100.00;99287.84;5008688;28;20087;-65
2023/10/28 06:33:53;;;;;;;4.10;1.77;;;;;;;8.73;100.00;99299.94;4990290;28;20037;-66
2023/10/28 06:36:19;;;;;;;5.05;2.13;;;;;;;8.76;100.00;99299.13;5000980;28;20045;-65
2023/10/28 06:38:44;;;;;;;6.15;1.80;;;;;;;8.77;100.00;99299.16;5009039;28;20028;-65
2023/10/28 06:41:10;;;;;;;4.07;1.90;;;;;;;8.78;100.00;99302.59;5002131;28;20172;-66
2023/10/28 06:43:35;;;;;;;5.93;1.70;;;;;;;8.80;100.00;99298.31;5008870;28;20497;-65
2023/10/28 06:46:00;;;;;;;5.85;1.90;;;;;;;8.82;100.00;99298.34;5010593;28;20030;-66
2023/10/28 06:48:26;;;;;;;5.60;2.00;;;;;;;8.82;100.00;99294.03;5010944;28;20109;-65
2023/10/28 06:50:51;;;;;;;7.68;2.05;;;;;;;8.84;100.00;99291.47;5018327;28;20482;-66
2023/10/28 06:53:16;;;;;;;5.97;2.17;;;;;;;8.84;100.00;99289.78;4991562;28;20065;-65
2023/10/28 06:55:42;;;;;;;4.03;1.88;;;;;;;8.85;100.00;99291.50;5022121;28;20022;-66
2023/10/28 06:58:07;;;;;;;3.15;1.60;;;;;;;8.85;100.00;99293.22;5006372;28;20026;-66
2023/10/28 07:00:32;;;;;;;3.67;2.03;;;;;;;8.87;100.00;99294.97;5012755;28;20021;-65
2023/10/28 07:02:58;;;;;;;5.95;1.98;;;;;;;8.88;100.00;99303.59;5005574;28;20403;-65
2023/10/28 07:05:26;;;;;;;4.32;2.22;;;;;;;8.88;100.00;99301.91;5006358;28;20021;-66
2023/10/28 07:07:52;;;;;;;5.28;2.17;;;;;;;8.89;100.00;99295.88;5005570;28;20030;-64
2023/10/28 07:10:17;;;;;;;4.60;1.88;;;;;;;8.91;100.00;99292.44;5006957;28;20484;-66
2023/10/28 07:12:43;;;;;;;8.70;2.08;;;;;;;8.92;100.00;99301.94;5009474;28;20084;-65
2023/10/28 07:15:10;;;;;;;6.10;2.40;;;;;;;8.91;100.00;99302.75;5007300;28;20025;-65
2023/10/28 07:17:36;;;;;;;5.78;2.13;;;;;;;8.92;100.00;99300.22;5008055;28;20036;-65
2023/10/28 07:20:02;;;;;;;5.80;1.95;;;;;;;8.94;100.00;99311.44;5007078;28;20378;-65
2023/10/28 07:22:27;;;;;;;4.85;2.10;;;;;;;8.97;100.00;99308.91;5009590;28;20097;-66
2023/10/28 07:24:56;;;;;;;4.97;1.90;;;;;;;9.01;100.00;99309.81;5017152;28;20026;-65
2023/10/28 07:27:21;;;;;;;7.60;2.08;;;;;;;9.03;100.00;99312.41;5006650;28;20068;-65
2023/10/28 07:29:48;;;;;;;5.45;2.05;;;;;;;9.03;100.00;99312.41;5007398;28;20117;-66
2023/10/28 07:32:14;;;;;;;4.90;2.00;;;;;;;9.04;100.00;99315.03;5007379;28;20022;-65
2023/10/28 07:34:40;;;;;;;3.90;1.80;;;;;;;9.03;100.00;99315.84;5006661;28;20080;-65
2023/10/28 07:37:06;;;;;;;8.35;2.17;;;;;;;9.03;100.00;99312.41;5013083;28;20083;-65
2023/10/28 07:39:31;;;;;;;7.18;2.17;;;;;;;9.04;100.00;99317.59;5006955;28;20022;-65
2023/10/28 07:41:57;;;;;;;6.03;1.83;;;;;;;9.07;100.00;99312.47;5001839;28;20044;-65
2023/10/28 07:44:22;;;;;;;3.50;1.60;;;;;;;9.09;100.00;99321.13;5001086;28;20030;-64
2023/10/28 07:46:48;;;;;;;10.85;2.20;;;;;;;9.12;100.00;99310.81;5006208;28;20026;-66
2023/10/28 07:49:13;;;;;;;7.10;1.83;;;;;;;9.16;100.00;99323.78;5006563;28;20040;-65
2023/10/28 07:51:39;;;;;;;7.85;2.00;;;;;;;9.20;100.00;99320.38;5007219;28;20107;-66
2023/10/28 07:54:05;;;;;;;6.45;2.05;;;;;;;9.25;100.00;99327.38;4996525;28;20030;-65
2023/10/28 07:56:31;;;;;;;9.60;2.00;;;;;;;9.30;100.00;99330.00;5005626;28;20125;-65
2023/10/28 07:58:59;;;;;;;3.78;1.60;;;;;;;9.34;100.00;99329.19;5004830;28;20434;-66
2023/10/28 08:01:29;;;;;;;3.35;1.85;;;;;;;9.39;100.00;99328.41;5006424;28;20464;-65
2023/10/28 08:03:54;;;;;;;4.43;1.73;;;;;;;9.44;100.00;99337.06;5005904;28;20041;-65
2023/10/28 08:06:20;;;;;;;4.32;1.70;;;;;;;9.48;100.00;99337.13;5002343;28;20034;-66
2023/10/28 08:08:46;;;;;;;9.43;2.17;;;;;;;9.51;100.00;99351.81;5000505;28;20164;-66
2023/10/28 08:11:13;;;;;;;5.97;2.00;;;;;;;9.55;100.00;99348.41;5006283;28;20091;-66
2023/10/28 08:13:39;;;;;;;6.47;2.08;;;;;;;9.60;100.00;99349.34;5007009;28;20030;-66
2023/10/28 08:16:09;;;;;;;5.82;1.90;;;;;;;9.65;100.00;99351.09;5006282;28;20037;-65
2023/10/28 08:18:35;;;;;;;5.65;2.17;;;;;;;9.68;100.00;99356.31;5006015;28;20026;-65
2023/10/28 08:21:01;;;;;;;6.97;2.00;;;;;;;9.74;100.00;99356.41;5006021;28;20037;-66
2023/10/28 08:23:28;;;;;;;5.35;1.70;;;;;;;9.78;100.00;99360.78;5006132;28;20022;-66
2023/10/28 08:25:54;;;;;;;5.15;1.75;;;;;;;9.81;100.00;99360.78;5003898;28;20041;-65
2023/10/28 08:28:19;;;;;;;7.53;2.22;;;;;;;9.85;100.00;99356.53;5006242;28;20028;-66
2023/10/28 08:30:46;;;;;;;7.72;1.60;;;;;;;9.90;100.00;99364.31;5022445;28;20018;-66
2023/10/28 08:33:11;;;;;;;7.13;1.77;;;;;;;9.92;100.00;99358.34;5025299;28;20171;-65
2023/10/28 08:35:37;;;;;;;5.22;1.63;;;;;;;9.95;100.00;99373.00;4998664;28;20037;-66
2023/10/28 08:38:05;;;;;;;6.22;2.40;;;;;;;9.97;100.00;99368.72;5014275;28;20034;-65
2023/10/28 08:40:34;;;;;;;10.48;2.08;;;;;;;10.00;100.00;99373.91;5000935;28;20032;-66
2023/10/28 08:43:06;;;;;;;7.05;2.10;;;;;;;10.04;100.00;99383.47;5091637;27;20685;-66
2023/10/28 08:45:33;;;;;;;10.23;1.98;;;;;;;10.08;100.00;99379.19;5097953;28;20058;-66
2023/10/28 08:47:59;;;;;;;4.07;1.50;;;;;;;10.11;100.00;99384.38;5093570;28;20024;-67
2023/10/28 08:50:26;;;;;;;6.47;1.55;;;;;;;10.15;100.00;99380.13;5092724;28;20024;-66
2023/10/28 08:52:56;;;;;;;7.63;2.10;;;;;;;10.20;100.00;99383.63;5096986;28;20196;-66
2023/10/28 08:55:24;;;;;;;6.60;1.92;;;;;;;10.25;100.00;99386.28;5082121;28;20582;-67
2023/10/28 08:57:49;;;;;;;6.75;1.83;;;;;;;10.30;100.00;99390.66;5088513;28;20038;-67
2023/10/28 09:00:15;;;;;;;4.72;1.60;;;;;;;10.31;100.00;99387.19;5083228;28;20020;-67
2023/10/28 09:02:44;;;;;;;5.25;1.83;;;;;;;10.33;100.00;99385.50;5074739;28;20065;-64
2023/10/28 09:05:14;;;;;;;5.07;1.95;;;;;;;10.37;100.00;99395.88;5078649;28;20028;-67
2023/10/28 09:07:40;;;;;;;10.85;1.95;;;;;;;10.37;100.00;99391.56;5084253;28;20357;-66
2023/10/28 09:10:05;;;;;;;7.03;1.52;;;;;;;10.43;100.00;99389.03;5083361;28;20077;-67
2023/10/28 09:12:32;;;;;;;6.03;1.50;;;;;;;10.51;100.00;99398.63;5094552;28;20024;-66
2023/10/28 09:14:57;;;;;;;7.22;2.10;;;;;;;10.56;100.00;99396.94;5081582;28;20024;-67
2023/10/28 09:17:22;;;;;;;5.72;1.40;;;;;;;10.60;100.00;99398.72;5100354;28;20031;-66
2023/10/28 09:19:51;;;;;;;6.78;1.50;;;;;;;10.66;100.00;99392.72;5094435;28;20029;-66
2023/10/28 09:22:16;;;;;;;5.15;1.83;;;;;;;10.73;100.00;99399.69;5073851;28;20104;-67
2023/10/28 09:24:46;;;;;;;5.50;1.52;;;;;;;10.80;100.00;99401.47;5075666;28;20111;-66
2023/10/28 09:27:12;;;;;;;4.72;1.48;;;;;;;10.89;100.00;99399.81;5083926;28;20090;-66
2023/10/28 09:29:38;;;;;;;7.47;2.03;;;;;;;10.97;100.00;99398.16;5083903;28;20090;-66
2023/10/28 09:32:08;;;;;;;7.07;1.77;;;;;;;11.05;100.00;99401.66;5083776;28;20020;-67
2023/10/28 09:34:40;;;;;;;6.28;1.60;;;;;;;11.07;100.00;99409.44;5075189;28;20286;-66
2023/10/28 09:37:07;;;;;;;6.28;1.65;;;;;;;11.08;100.00;99405.97;5083634;28;20028;-67
2023/10/28 09:39:33;;;;;;;3.70;1.50;;;;;;;11.09;100.00;99409.44;5071083;28;20024;-66
2023/10/28 09:42:02;;;;;;;5.97;1.50;;;;;;;11.10;100.00;99399.09;5083129;28;20445;-66
2023/10/28 09:44:28;;;;;;;4.78;1.92;;;;;;;11.05;100.00;99403.38;5074830;28;20043;-67
2023/10/28 09:47:00;;;;;;;10.32;2.53;;;;;;;11.07;100.00;99403.38;5068283;28;20476;-66
2023/10/28 09:49:28;;;;;;;7.88;1.60;;;;;;;11.08;100.00;99405.97;5089373;28;20019;-66
2023/10/28 09:51:59;;;;;;;4.93;1.45;;;;;;;11.10;100.00;99403.44;5076039;28;20323;-66
2023/10/28 09:54:28;;;;;;;4.10;1.90;;;;;;;11.09;100.00;99407.75;5057377;28;20115;-67
2023/10/28 09:56:58;;;;;;;5.80;1.35;;;;;;;11.12;100.00;99404.28;5082148;28;20027;-66
2023/10/28 09:59:25;;;;;;;5.68;2.22;;;;;;;11.15;100.00;99405.16;5086784;28;20480;-67
2023/10/28 10:02:16;;;;;;;5.32;1.10;;;;;;;11.20;100.00;99407.81;5080221;28;20016;-67
2023/10/28 10:05:13;;;;;;;5.97;1.58;;;;;;;11.23;100.00;99400.03;5063018;28;20424;-67
2023/10/28 10:07:39;;;;;;;5.22;1.15;;;;;;;11.27;100.00;99399.22;4986649;28;20162;-66
2023/10/28 10:10:15;;;;;;;4.35;1.75;;;;;;;11.33;100.00;99406.16;5064660;28;20490;-66
2023/10/28 10:12:41;;;;;;;8.02;1.77;;;;;;;11.37;100.00;99401.88;5080232;28;20376;-67
2023/10/28 10:15:09;;;;;;;3.38;1.25;;;;;;;11.43;100.00;99398.41;5072854;28;20031;-67
2023/10/28 10:17:48;;;;;;;6.72;1.52;;;;;;;11.46;100.00;99406.25;5074059;28;20069;-66
2023/10/28 10:20:23;;;;;;;8.50;1.88;;;;;;;11.53;100.00;99410.59;5070049;28;20032;-66
2023/10/28 10:22:58;;;;;;;5.60;1.27;;;;;;;11.59;100.00;99420.13;5068720;28;20071;-67
2023/10/28 10:25:32;;;;;;;5.93;1.35;;;;;;;11.68;100.00;99416.69;5074194;28;20052;-67
2023/10/28 10:28:23;;;;;;;5.20;1.40;;;;;;;11.75;100.00;99427.13;5069761;28;20482;-67
2023/10/28 10:30:48;;;;;;;5.95;1.50;;;;;;;11.81;100.00;99412.44;5065561;28;20040;-67
2023/10/28 10:33:24;;;;;;;8.32;1.55;;;;;;;11.81;100.00;99423.69;5071496;28;20032;-66
2023/10/28 10:35:50;;;;;;;5.88;1.42;;;;;;;11.83;100.00;99421.09;5069751;28;20073;-67
2023/10/28 10:38:16;;;;;;;7.55;1.67;;;;;;;11.84;100.00;99431.50;5067247;28;20533;-67
2023/10/28 10:40:41;;;;;;;3.45;1.45;;;;;;;11.82;100.00;99420.22;5069302;28;20345;-66
2023/10/28 10:43:10;;;;;;;8.32;1.67;;;;;;;11.83;100.00;99421.09;5067891;28;20037;-66
2023/10/28 10:45:36;;;;;;;6.03;1.70;;;;;;;11.82;100.00;99421.97;5068848;28;20097;-66
2023/10/28 10:48:08;;;;;;;5.97;2.17;;;;;;;11.82;100.00;99415.03;5063147;28;20040;-66
2023/10/28 10:50:37;;;;;;;3.08;1.27;;;;;;;11.86;100.00;99426.31;5068703;28;20028;-70
2023/10/28 10:53:05;;;;;;;6.22;1.10;;;;;;;11.89;100.00;99421.16;5050475;28;20052;-69
2023/10/28 10:55:31;;;;;;;8.02;1.75;;;;;;;11.89;100.00;99421.16;5048437;28;20388;-67
2023/10/28 10:57:57;;;;;;;6.85;1.75;;;;;;;11.95;100.00;99413.38;5062866;28;20370;-67
2023/10/28 11:00:23;;;;;;;6.80;1.55;;;;;;;12.03;100.00;99417.72;5059458;28;20371;-69
2023/10/28 11:02:50;;;;;;;6.97;1.45;;;;;;;12.06;100.00;99417.72;5062279;28;20024;-69
2023/10/28 11:05:17;;;;;;;7.53;1.30;;;;;;;12.07;100.00;99420.31;5058972;28;20380;-69
2023/10/28 11:07:43;;;;;;;6.95;2.08;;;;;;;12.13;100.00;99422.09;5076637;28;20040;-69
2023/10/28 11:10:09;;;;;;;7.55;1.88;;;;;;;12.19;100.00;99408.28;5067389;28;20077;-69
2023/10/28 11:12:35;;;;;;;3.85;1.58;;;;;;;12.27;100.00;99408.31;5068033;28;20048;-69
2023/10/28 11:15:01;;;;;;;6.25;1.50;;;;;;;12.39;100.00;99405.72;5067548;28;20033;-68
2023/10/28 11:17:26;;;;;;;7.13;2.35;;;;;;;12.47;100.00;99398.81;5051710;28;20101;-69
2023/10/28 11:19:52;;;;;;;4.80;1.52;;;;;;;12.53;100.00;99399.66;5068120;28;20028;-67
2023/10/28 11:22:18;;;;;;;9.07;1.80;;;;;;;12.53;100.00;99402.25;5074798;28;20035;-69
2023/10/28 11:24:44;;;;;;;7.13;2.08;;;;;;;12.58;100.00;99410.94;5078109;28;20617;-70
2023/10/28 11:27:17;;;;;;;10.20;1.75;;;;;;;12.52;100.00;99410.94;5072684;28;20029;-69